Time;durP1;ratioP1;P1;durP2;ratioP2;P2;SDS_P1;SDS_P2;PMS_P1;PMS_P2;Temp;Humidity;BMP_temperature;BMP_pressure;BME280_temperature;BME280_humidity;BME280_pressure;Samples;Min_cycle;Max_cycle;Signal;HPM_P1;HPM_P2
2023/06/17 00:00:46;;;;;;;7.55;4.63;;;;;;;13.02;100.00;98203.63;2603911;28;20065;-87
2023/06/17 00:02:21;;;;;;;6.30;4.53;;;;;;;13.06;100.00;98199.94;2603795;28;20088;-87
2023/06/17 00:03:37;;;;;;;8.48;4.63;;;;;;;13.08;100.00;98199.88;2604451;28;20110;-87
2023/06/17 00:04:52;;;;;;;7.97;5.10;;;;;;;13.00;100.00;98202.84;2605895;28;20053;-85
2023/06/17 00:06:09;;;;;;;5.22;4.30;;;;;;;12.99;100.00;98201.97;2604293;28;20048;-87
2023/06/17 00:07:24;;;;;;;6.15;4.50;;;;;;;12.86;100.00;98198.16;2605047;28;20587;-87
2023/06/17 00:08:40;;;;;;;8.13;4.68;;;;;;;13.00;100.00;98198.41;2605024;28;20067;-87
2023/06/17 00:09:56;;;;;;;6.50;4.60;;;;;;;12.98;100.00;98199.41;2604012;28;20041;-87
2023/06/17 00:11:11;;;;;;;6.07;4.75;;;;;;;13.02;100.00;98201.00;2604071;28;20049;-87
2023/06/17 00:12:31;;;;;;;5.55;4.60;;;;;;;13.00;100.00;98202.84;2604642;28;20049;-87
2023/06/17 00:13:47;;;;;;;4.85;4.20;;;;;;;12.82;100.00;98205.28;2602897;28;20050;-88
2023/06/17 00:15:04;;;;;;;6.45;4.45;;;;;;;12.64;100.00;98198.16;2605463;28;20080;-86
2023/06/17 00:16:20;;;;;;;4.72;4.20;;;;;;;12.64;100.00;98196.41;2605544;28;20045;-87
2023/06/17 00:17:37;;;;;;;9.43;5.40;;;;;;;12.37;100.00;98203.59;2603748;28;20714;-87
2023/06/17 00:18:53;;;;;;;6.80;4.75;;;;;;;12.50;100.00;98198.69;2603125;28;20416;-87
2023/06/17 00:20:11;;;;;;;7.00;4.57;;;;;;;12.40;100.00;98191.22;2603135;28;20045;-87
2023/06/17 00:21:26;;;;;;;5.82;4.55;;;;;;;12.32;100.00;98187.19;2603748;28;20053;-87
2023/06/17 00:22:46;;;;;;;7.45;4.88;;;;;;;12.33;100.00;98191.53;2599674;28;20053;-88
2023/06/17 00:24:02;;;;;;;7.60;5.03;;;;;;;12.49;100.00;98190.00;2604093;28;20127;-87
2023/06/17 00:25:18;;;;;;;9.57;4.82;;;;;;;12.49;100.00;98197.88;2602786;28;20052;-87
2023/06/17 00:26:34;;;;;;;6.47;5.07;;;;;;;12.43;100.00;98188.47;2602994;28;20057;-88
2023/06/17 00:27:50;;;;;;;8.63;4.95;;;;;;;12.38;100.00;98189.56;2605744;28;20049;-88
2023/06/17 00:29:06;;;;;;;6.35;5.10;;;;;;;12.43;100.00;98187.59;2602823;28;20072;-89
2023/06/17 00:30:21;;;;;;;7.45;5.20;;;;;;;12.46;100.00;98186.63;2603482;28;20053;-88
2023/06/17 00:31:37;;;;;;;5.40;4.82;;;;;;;12.54;100.00;98180.16;2598875;28;20053;-87
2023/06/17 00:32:52;;;;;;;8.45;5.35;;;;;;;12.41;100.00;98181.56;2604314;28;20053;-89
2023/06/17 00:34:08;;;;;;;6.38;5.28;;;;;;;12.47;100.00;98183.94;2604683;28;20516;-87
2023/06/17 00:35:23;;;;;;;7.82;5.45;;;;;;;12.60;100.00;98186.09;2602029;28;20486;-88
2023/06/17 00:36:39;;;;;;;6.13;5.15;;;;;;;12.65;100.00;98181.50;2603912;28;20045;-87
2023/06/17 00:37:54;;;;;;;8.63;6.20;;;;;;;12.85;100.00;98170.16;2603872;28;20528;-88
2023/06/17 00:39:13;;;;;;;6.60;5.47;;;;;;;12.90;100.00;98176.06;2603091;28;20457;-87
2023/06/17 00:40:29;;;;;;;9.23;5.75;;;;;;;12.86;100.00;98179.75;2603032;28;20057;-87
2023/06/17 00:41:44;;;;;;;6.90;5.47;;;;;;;12.81;100.00;98177.31;2604958;28;20541;-87
2023/06/17 00:43:00;;;;;;;7.47;6.03;;;;;;;12.71;100.00;98182.09;2604009;28;20064;-88
2023/06/17 00:44:16;;;;;;;10.77;5.95;;;;;;;12.74;100.00;98178.50;2605189;28;20056;-87
2023/06/17 00:45:38;;;;;;;8.30;5.50;;;;;;;12.70;100.00;98177.75;2602513;28;20515;-87
2023/06/17 00:46:55;;;;;;;7.15;5.40;;;;;;;12.66;100.00;98181.44;2603970;28;20316;-86
2023/06/17 00:48:11;;;;;;;7.53;5.90;;;;;;;12.77;100.00;98185.38;2598666;28;20045;-87
2023/06/17 00:49:35;;;;;;;6.53;5.38;;;;;;;12.97;100.00;98179.28;2603484;28;20893;-86
2023/06/17 00:50:51;;;;;;;6.38;5.35;;;;;;;13.05;100.00;98179.84;2604269;28;20131;-86
2023/06/17 00:52:09;;;;;;;8.38;5.22;;;;;;;12.92;100.00;98173.38;2605081;28;20107;-86
2023/06/17 00:53:25;;;;;;;7.35;5.18;;;;;;;12.88;100.00;98174.44;2605186;28;20050;-88
2023/06/17 00:54:41;;;;;;;7.03;5.32;;;;;;;12.97;100.00;98176.66;2599237;28;20077;-87
2023/06/17 00:55:58;;;;;;;5.70;5.00;;;;;;;13.07;100.00;98180.63;2603102;28;20056;-87
2023/06/17 00:57:14;;;;;;;12.65;5.68;;;;;;;13.14;100.00;98179.47;2602889;28;20046;-87
2023/06/17 00:58:31;;;;;;;7.75;5.50;;;;;;;13.06;100.00;98180.69;2604042;28;20131;-87
2023/06/17 00:59:47;;;;;;;6.32;4.80;;;;;;;13.08;100.00;98181.50;2604484;28;20128;-87
2023/06/17 01:01:04;;;;;;;6.85;5.10;;;;;;;13.03;100.00;98178.19;2604385;28;20049;-88
2023/06/17 01:02:25;;;;;;;6.93;5.30;;;;;;;13.00;100.00;98179.19;2603778;28;20131;-88
2023/06/17 01:03:40;;;;;;;8.52;5.57;;;;;;;13.12;100.00;98173.38;2605469;28;20268;-87
2023/06/17 01:04:57;;;;;;;6.57;5.18;;;;;;;13.22;100.00;98175.63;2603935;28;20076;-87
2023/06/17 01:06:25;;;;;;;7.95;5.63;;;;;;;13.22;100.00;98176.50;2604323;28;20049;-87
2023/06/17 01:08:14;;;;;;;8.18;5.80;;;;;;;13.38;100.00;98166.16;2605058;28;20532;-87
2023/06/17 01:09:34;;;;;;;7.60;5.35;;;;;;;13.37;100.00;98180.22;2602844;28;20119;-87
2023/06/17 01:10:59;;;;;;;7.00;5.20;;;;;;;13.29;100.00;98182.34;2601971;28;20524;-87
2023/06/17 01:12:16;;;;;;;7.15;5.55;;;;;;;13.37;100.00;98182.84;2602677;28;20041;-87
2023/06/17 01:13:34;;;;;;;7.30;5.28;;;;;;;13.41;100.00;98175.69;2604540;28;20607;-87
2023/06/17 01:14:50;;;;;;;6.50;5.78;;;;;;;13.39;100.00;98178.38;2603596;28;20059;-87
2023/06/17 01:16:08;;;;;;;5.95;5.03;;;;;;;13.46;100.00;98179.00;2597977;28;20045;-87
2023/06/17 01:17:26;;;;;;;7.28;5.00;;;;;;;13.46;100.00;98180.78;2600426;28;20121;-87
2023/06/17 01:18:42;;;;;;;7.75;5.18;;;;;;;13.49;100.00;98180.63;2605350;28;20144;-88
2023/06/17 01:19:59;;;;;;;5.97;4.90;;;;;;;13.46;100.00;98181.63;2605092;28;20098;-87
2023/06/17 01:21:17;;;;;;;7.57;5.25;;;;;;;13.37;100.00;98174.13;2604377;28;20420;-87
2023/06/17 01:22:34;;;;;;;6.97;5.63;;;;;;;13.39;100.00;98177.53;2604719;28;20037;-87
2023/06/17 01:23:53;;;;;;;6.43;4.68;;;;;;;13.40;100.00;98180.06;2604887;28;20048;-87
2023/06/17 01:25:09;;;;;;;6.57;5.43;;;;;;;13.45;100.00;98169.41;2603375;28;20093;-88
2023/06/17 01:26:28;;;;;;;6.90;5.30;;;;;;;13.46;100.00;98168.47;2605396;28;20098;-87
2023/06/17 01:27:43;;;;;;;6.72;5.70;;;;;;;13.50;100.00;98179.72;2603622;28;20124;-87
2023/06/17 01:29:01;;;;;;;7.28;5.95;;;;;;;13.51;100.00;98177.03;2604875;28;21042;-87
2023/06/17 01:30:16;;;;;;;7.55;6.00;;;;;;;13.49;100.00;98175.38;2604284;28;20076;-87
2023/06/17 01:31:32;;;;;;;9.07;5.70;;;;;;;13.55;100.00;98175.13;2605529;28;20048;-87
2023/06/17 01:32:48;;;;;;;9.90;5.97;;;;;;;13.54;100.00;98176.03;2603137;28;20477;-87
2023/06/17 01:34:05;;;;;;;8.18;6.22;;;;;;;13.34;100.00;98169.84;2604365;28;20339;-87
2023/06/17 01:35:23;;;;;;;9.00;6.03;;;;;;;13.37;100.00;98172.34;2603507;28;20509;-87
2023/06/17 01:36:39;;;;;;;7.45;5.50;;;;;;;13.41;100.00;98167.78;2604183;28;20044;-87
2023/06/17 01:38:05;;;;;;;7.93;6.13;;;;;;;13.37;100.00;98166.22;2603754;28;20139;-88
2023/06/17 01:39:25;;;;;;;7.20;5.70;;;;;;;13.47;100.00;98164.06;2605996;28;20419;-87
2023/06/17 01:40:43;;;;;;;7.35;5.70;;;;;;;13.32;100.00;98160.31;2603613;28;20468;-87
2023/06/17 01:42:00;;;;;;;7.40;5.88;;;;;;;13.33;100.00;98162.88;2603085;28;20087;-87
2023/06/17 01:43:16;;;;;;;10.00;6.32;;;;;;;13.28;100.00;98157.81;2604578;28;20049;-88
2023/06/17 01:44:34;;;;;;;8.75;6.35;;;;;;;13.22;100.00;98154.59;2603677;28;20066;-88
2023/06/17 01:45:51;;;;;;;7.93;6.15;;;;;;;13.30;100.00;98163.03;2605289;28;20084;-88
2023/06/17 01:47:09;;;;;;;8.20;6.25;;;;;;;13.18;100.00;98167.00;2604829;28;20219;-88
2023/06/17 01:48:25;;;;;;;8.70;5.95;;;;;;;13.28;100.00;98164.88;2605033;28;20059;-88
2023/06/17 01:49:41;;;;;;;8.05;5.97;;;;;;;13.27;100.00;98152.66;2599424;28;20058;-87
2023/06/17 01:50:56;;;;;;;8.95;6.18;;;;;;;13.33;100.00;98152.38;2605149;28;20563;-88
2023/06/17 01:52:12;;;;;;;8.93;6.78;;;;;;;13.23;100.00;98158.94;2605261;28;20076;-88
2023/06/17 01:53:27;;;;;;;8.38;5.55;;;;;;;13.21;100.00;98172.16;2603706;28;20060;-88
2023/06/17 01:54:43;;;;;;;8.05;5.97;;;;;;;13.21;100.00;98161.66;2604716;28;20485;-88
2023/06/17 01:55:58;;;;;;;8.90;5.85;;;;;;;13.04;100.00;98164.13;2602722;28;20128;-88
2023/06/17 01:57:14;;;;;;;7.35;5.57;;;;;;;12.91;100.00;98162.00;2599597;28;20061;-88
2023/06/17 01:58:30;;;;;;;7.60;6.03;;;;;;;12.85;100.00;98167.53;2603148;28;20046;-88
2023/06/17 01:59:45;;;;;;;9.48;5.90;;;;;;;12.87;100.00;98162.22;2605145;28;20049;-88
2023/06/17 02:01:01;;;;;;;6.97;5.53;;;;;;;12.96;100.00;98164.44;2602181;28;20057;-88
2023/06/17 02:02:16;;;;;;;8.02;6.40;;;;;;;13.04;100.00;98161.50;2599683;28;20451;-88
2023/06/17 02:03:32;;;;;;;8.73;5.88;;;;;;;12.82;100.00;98163.25;2602303;28;20041;-88
2023/06/17 02:04:48;;;;;;;7.40;5.88;;;;;;;12.52;100.00;98171.47;2605649;28;20065;-88
2023/06/17 02:06:04;;;;;;;8.63;6.32;;;;;;;12.69;100.00;98164.69;2608224;28;20049;-86
2023/06/17 02:07:25;;;;;;;8.60;6.60;;;;;;;12.78;100.00;98168.69;2609946;28;20568;-87
2023/06/17 02:08:42;;;;;;;6.95;5.97;;;;;;;12.69;100.00;98159.44;2608163;28;20057;-87
2023/06/17 02:09:57;;;;;;;9.40;6.35;;;;;;;12.57;100.00;98166.91;2609536;28;20693;-86
2023/06/17 02:11:14;;;;;;;8.07;6.30;;;;;;;12.62;100.00;98165.88;2609659;28;20057;-86
2023/06/17 02:12:30;;;;;;;9.07;6.80;;;;;;;12.84;100.00;98166.66;2608521;28;20064;-85
2023/06/17 02:13:46;;;;;;;8.00;6.68;;;;;;;12.98;100.00;98159.97;2610911;28;20503;-87
2023/06/17 02:15:01;;;;;;;7.25;5.63;;;;;;;13.06;100.00;98163.16;2610522;28;20072;-87
2023/06/17 02:16:17;;;;;;;8.20;6.18;;;;;;;12.69;100.00;98162.91;2609839;28;20121;-86
2023/06/17 02:17:35;;;;;;;8.25;6.53;;;;;;;12.49;100.00;98168.97;2608892;28;20053;-86
2023/06/17 02:18:54;;;;;;;9.50;6.28;;;;;;;12.62;100.00;98161.44;2609604;28;20049;-87
2023/06/17 02:20:11;;;;;;;10.38;6.15;;;;;;;12.61;100.00;98162.38;2604216;28;20068;-84
2023/06/17 02:21:26;;;;;;;8.80;6.15;;;;;;;12.63;100.00;98162.31;2608269;28;20056;-84
2023/06/17 02:22:42;;;;;;;7.47;6.00;;;;;;;12.82;100.00;98163.25;2611409;28;20034;-85
2023/06/17 02:23:58;;;;;;;8.98;6.30;;;;;;;12.75;100.00;98161.81;2610246;28;20056;-86
2023/06/17 02:25:13;;;;;;;7.38;6.30;;;;;;;12.64;100.00;98162.28;2610136;28;20056;-86
2023/06/17 02:26:28;;;;;;;7.00;5.82;;;;;;;12.69;100.00;98164.69;2609918;28;20053;-87
2023/06/17 02:27:44;;;;;;;8.23;6.40;;;;;;;12.65;100.00;98160.47;2610139;28;20074;-86
2023/06/17 02:29:00;;;;;;;8.93;6.18;;;;;;;12.73;100.00;98157.53;2608393;28;20107;-88
2023/06/17 02:30:15;;;;;;;9.73;6.43;;;;;;;12.93;100.00;98167.22;2610215;28;20348;-87
2023/06/17 02:31:32;;;;;;;7.68;6.35;;;;;;;12.84;100.00;98161.41;2608570;28;20050;-87
2023/06/17 02:32:47;;;;;;;10.82;6.50;;;;;;;12.97;100.00;98164.41;2610131;28;20052;-86
2023/06/17 02:34:03;;;;;;;8.38;6.03;;;;;;;12.76;100.00;98160.91;2605332;28;20049;-86
2023/06/17 02:35:19;;;;;;;7.43;5.95;;;;;;;12.64;100.00;98159.66;2604711;28;20309;-87
2023/06/17 02:36:38;;;;;;;7.13;6.15;;;;;;;12.58;100.00;98154.63;2607079;28;20053;-88
2023/06/17 02:37:55;;;;;;;7.97;6.07;;;;;;;12.72;100.00;98156.69;2605519;28;20148;-88
2023/06/17 02:39:11;;;;;;;8.73;6.13;;;;;;;12.66;100.00;98156.94;2606571;28;20064;-88
2023/06/17 02:40:28;;;;;;;8.15;6.13;;;;;;;12.98;100.00;98159.97;2607150;28;20050;-88
2023/06/17 02:41:44;;;;;;;8.98;5.85;;;;;;;12.93;100.00;98159.34;2605143;28;20049;-88
2023/06/17 02:42:59;;;;;;;9.90;6.05;;;;;;;12.90;100.00;98154.22;2605379;28;20049;-88
2023/06/17 02:44:15;;;;;;;8.77;5.80;;;;;;;12.92;100.00;98153.25;2606994;28;20104;-88
2023/06/17 02:45:30;;;;;;;7.35;6.05;;;;;;;12.88;100.00;98154.25;2606227;28;20073;-88
2023/06/17 02:46:46;;;;;;;7.80;5.95;;;;;;;12.95;100.00;98155.72;2605883;28;20128;-87
2023/06/17 02:48:02;;;;;;;8.02;5.80;;;;;;;12.98;100.00;98147.72;2606205;28;20110;-88
2023/06/17 02:49:17;;;;;;;7.55;5.38;;;;;;;12.83;100.00;98143.94;2605172;28;20654;-88
2023/06/17 02:50:33;;;;;;;8.85;5.85;;;;;;;12.75;100.00;98146.06;2600604;28;20049;-88
2023/06/17 02:51:49;;;;;;;7.43;5.80;;;;;;;12.50;100.00;98149.69;2605473;28;20126;-88
2023/06/17 02:53:07;;;;;;;9.15;6.13;;;;;;;12.36;100.00;98154.63;2604996;28;20448;-88
2023/06/17 02:54:23;;;;;;;7.82;5.97;;;;;;;12.26;100.00;98148.91;2603275;28;20076;-87
2023/06/17 02:55:38;;;;;;;7.85;5.85;;;;;;;12.25;100.00;98148.03;2604802;28;20045;-88
2023/06/17 02:56:55;;;;;;;7.10;5.75;;;;;;;12.19;100.00;98152.66;2604381;28;20037;-88
2023/06/17 02:58:15;;;;;;;11.25;6.10;;;;;;;12.15;100.00;98144.06;2603733;28;20057;-88
2023/06/17 02:59:36;;;;;;;8.98;5.88;;;;;;;12.19;100.00;98156.16;2602831;28;20058;-88
2023/06/17 03:00:54;;;;;;;8.43;5.95;;;;;;;12.34;100.00;98159.09;2604528;28;20045;-88
2023/06/17 03:02:10;;;;;;;10.23;6.20;;;;;;;12.35;100.00;98147.69;2603676;28;20065;-88
2023/06/17 03:03:34;;;;;;;8.10;6.60;;;;;;;12.36;100.00;98147.63;2604763;28;20050;-88
2023/06/17 03:04:53;;;;;;;7.65;5.97;;;;;;;12.45;100.00;98154.28;2603041;28;20637;-87
2023/06/17 03:06:09;;;;;;;7.82;6.05;;;;;;;12.51;100.00;98151.38;2602819;28;20072;-88
2023/06/17 03:07:25;;;;;;;8.43;6.07;;;;;;;12.45;100.00;98148.16;2603579;28;20064;-88
2023/06/17 03:08:40;;;;;;;9.60;6.70;;;;;;;12.56;100.00;98148.59;2604563;28;20069;-88
2023/06/17 03:09:56;;;;;;;8.38;5.97;;;;;;;12.29;100.00;98154.03;2604247;28;20037;-89
2023/06/17 03:11:12;;;;;;;9.98;6.38;;;;;;;12.18;100.00;98157.09;2603659;28;20064;-87
2023/06/17 03:12:27;;;;;;;7.72;5.65;;;;;;;12.14;100.00;98158.09;2603564;28;20049;-88
2023/06/17 03:13:43;;;;;;;7.55;6.00;;;;;;;12.05;100.00;98161.09;2599059;28;20087;-88
2023/06/17 03:14:58;;;;;;;9.70;6.07;;;;;;;12.08;100.00;98156.59;2603280;28;20048;-88
2023/06/17 03:16:16;;;;;;;7.85;6.18;;;;;;;12.17;100.00;98158.00;2603833;28;20048;-88
2023/06/17 03:17:32;;;;;;;9.82;6.07;;;;;;;12.26;100.00;98154.16;2605103;28;20075;-88
2023/06/17 03:18:48;;;;;;;8.93;6.55;;;;;;;12.16;100.00;98153.66;2603189;28;20056;-88
2023/06/17 03:20:06;;;;;;;8.63;5.78;;;;;;;12.30;100.00;98163.59;2601936;28;20119;-87
2023/06/17 03:21:22;;;;;;;8.38;6.65;;;;;;;12.34;100.00;98157.31;2598968;28;20052;-88
2023/06/17 03:22:38;;;;;;;7.57;6.10;;;;;;;12.37;100.00;98151.97;2604551;28;20135;-88
2023/06/17 03:23:53;;;;;;;10.25;6.43;;;;;;;12.47;100.00;98154.19;2605870;28;20550;-87
2023/06/17 03:25:09;;;;;;;9.20;6.70;;;;;;;12.35;100.00;98155.56;2604979;28;20063;-87
2023/06/17 03:26:25;;;;;;;8.77;6.57;;;;;;;12.31;100.00;98156.59;2605985;28;20440;-87
2023/06/17 03:27:40;;;;;;;9.93;6.80;;;;;;;12.54;100.00;98148.63;2604216;28;20056;-87
2023/06/17 03:28:56;;;;;;;8.90;6.53;;;;;;;12.76;100.00;98153.00;2606908;28;20071;-87
2023/06/17 03:30:12;;;;;;;10.65;6.90;;;;;;;13.03;100.00;98152.78;2605716;28;20064;-87
2023/06/17 03:31:28;;;;;;;11.02;6.85;;;;;;;13.17;100.00;98157.41;2605017;28;20037;-87
2023/06/17 03:32:44;;;;;;;9.35;6.55;;;;;;;13.06;100.00;98160.53;2604992;28;20073;-87
2023/06/17 03:34:00;;;;;;;12.85;6.70;;;;;;;13.12;100.00;98154.97;2604828;28;20552;-87
2023/06/17 03:35:15;;;;;;;10.80;6.47;;;;;;;13.24;100.00;98155.38;2605845;28;20045;-87
2023/06/17 03:36:31;;;;;;;10.48;6.85;;;;;;;13.28;100.00;98151.72;2604082;28;20552;-86
2023/06/17 03:37:47;;;;;;;11.27;6.32;;;;;;;13.18;100.00;98145.97;2603422;28;20064;-87
2023/06/17 03:39:02;;;;;;;11.02;6.40;;;;;;;13.27;100.00;98153.47;2603329;28;20110;-88
2023/06/17 03:40:18;;;;;;;12.23;6.80;;;;;;;13.18;100.00;98153.03;2605285;28;20057;-88
2023/06/17 03:41:34;;;;;;;9.48;6.68;;;;;;;13.20;100.00;98151.19;2603345;28;20614;-88
2023/06/17 03:42:49;;;;;;;12.27;6.60;;;;;;;12.99;100.00;98153.81;2604913;28;20053;-88
2023/06/17 03:44:05;;;;;;;8.27;6.47;;;;;;;13.00;100.00;98152.91;2605450;28;20123;-89
2023/06/17 03:45:21;;;;;;;9.18;6.80;;;;;;;12.97;100.00;98151.25;2606112;28;20503;-88
2023/06/17 03:46:37;;;;;;;9.75;7.15;;;;;;;12.89;100.00;98153.34;2605243;28;20037;-89
2023/06/17 03:47:52;;;;;;;10.52;7.10;;;;;;;12.86;100.00;98153.47;2606050;28;20502;-89
2023/06/17 03:49:08;;;;;;;12.85;7.35;;;;;;;13.04;100.00;98157.09;2603724;28;20045;-90
2023/06/17 03:50:24;;;;;;;11.38;6.72;;;;;;;12.97;100.00;98146.00;2606590;28;20061;-87
2023/06/17 03:51:39;;;;;;;8.48;6.57;;;;;;;12.88;100.00;98153.44;2603919;28;20124;-88
2023/06/17 03:52:55;;;;;;;11.18;6.95;;;;;;;13.00;100.00;98156.38;2606251;28;20056;-88
2023/06/17 03:54:11;;;;;;;12.52;6.63;;;;;;;13.03;100.00;98165.91;2604505;28;20052;-88
2023/06/17 03:55:26;;;;;;;11.27;6.55;;;;;;;13.05;100.00;98169.31;2604834;28;20171;-88
2023/06/17 03:56:42;;;;;;;8.35;6.70;;;;;;;12.91;100.00;98172.53;2604633;28;20049;-87
2023/06/17 03:57:57;;;;;;;9.48;6.70;;;;;;;12.85;100.00;98167.53;2606050;28;20045;-87
2023/06/17 03:59:15;;;;;;;10.05;6.55;;;;;;;12.70;100.00;98175.13;2602174;28;20049;-87
2023/06/17 04:00:31;;;;;;;11.27;6.60;;;;;;;12.94;100.00;98172.41;2605991;28;20075;-89
2023/06/17 04:01:46;;;;;;;9.05;6.40;;;;;;;12.99;100.00;98169.56;2604425;28;20080;-88
2023/06/17 04:03:02;;;;;;;9.50;6.40;;;;;;;13.04;100.00;98167.63;2606393;28;20735;-87
2023/06/17 04:04:17;;;;;;;9.05;6.13;;;;;;;12.96;100.00;98177.59;2602899;28;20065;-88
2023/06/17 04:05:33;;;;;;;7.90;6.10;;;;;;;13.11;100.00;98169.06;2603832;28;20053;-88
2023/06/17 04:06:49;;;;;;;9.18;6.20;;;;;;;13.13;100.00;98169.88;2604528;28;20057;-88
2023/06/17 04:08:06;;;;;;;10.57;6.63;;;;;;;13.18;100.00;98168.81;2603983;28;20072;-88
2023/06/17 04:09:21;;;;;;;9.15;5.93;;;;;;;13.17;100.00;98174.97;2606965;28;20049;-88
2023/06/17 04:10:37;;;;;;;9.90;7.13;;;;;;;13.22;100.00;98175.63;2604681;28;20076;-87
2023/06/17 04:11:53;;;;;;;8.70;6.10;;;;;;;13.23;100.00;98172.94;2603788;28;20052;-87
2023/06/17 04:13:08;;;;;;;6.88;5.75;;;;;;;13.26;100.00;98177.19;2604880;28;20046;-87
2023/06/17 04:14:24;;;;;;;7.78;6.25;;;;;;;13.12;100.00;98175.19;2604756;28;20084;-88
2023/06/17 04:15:40;;;;;;;8.27;7.13;;;;;;;13.18;100.00;98180.16;2604751;28;20606;-86
2023/06/17 04:16:59;;;;;;;9.25;6.95;;;;;;;13.19;100.00;98178.41;2606133;28;20692;-87
2023/06/17 04:18:14;;;;;;;9.40;6.43;;;;;;;13.11;100.00;98170.84;2604273;28;20076;-87
2023/06/17 04:19:31;;;;;;;10.27;7.00;;;;;;;13.03;100.00;98167.66;2601004;28;20048;-88
2023/06/17 04:20:47;;;;;;;10.07;6.18;;;;;;;13.00;100.00;98174.78;2604259;28;20497;-88
2023/06/17 04:22:02;;;;;;;7.18;6.35;;;;;;;13.11;100.00;98171.69;2603754;28;20049;-88
2023/06/17 04:23:18;;;;;;;8.23;5.93;;;;;;;13.07;100.00;98171.91;2603065;28;20060;-88
2023/06/17 04:24:34;;;;;;;9.57;6.50;;;;;;;13.11;100.00;98169.06;2606905;28;20045;-88
2023/06/17 04:25:50;;;;;;;9.07;6.32;;;;;;;13.04;100.00;98174.63;2602793;28;20052;-88
2023/06/17 04:27:07;;;;;;;10.25;6.63;;;;;;;13.10;100.00;98174.41;2607077;28;20057;-88
2023/06/17 04:28:23;;;;;;;10.50;6.00;;;;;;;13.07;100.00;98169.28;2603358;28;20108;-88
2023/06/17 04:29:39;;;;;;;13.77;6.72;;;;;;;13.22;100.00;98179.13;2603969;28;20049;-88
2023/06/17 04:30:54;;;;;;;8.82;7.03;;;;;;;13.21;100.00;98174.78;2603665;28;20049;-88
2023/06/17 04:32:10;;;;;;;10.63;6.13;;;;;;;13.22;100.00;98179.13;2606118;28;20076;-88
2023/06/17 04:33:26;;;;;;;9.18;6.80;;;;;;;13.27;100.00;98181.56;2598669;28;20072;-87
2023/06/17 04:34:47;;;;;;;8.38;6.72;;;;;;;13.33;100.00;98178.66;2604589;28;20132;-88
2023/06/17 04:36:07;;;;;;;10.90;6.85;;;;;;;13.36;100.00;98178.50;2603874;28;20128;-89
2023/06/17 04:37:23;;;;;;;8.20;6.68;;;;;;;13.39;100.00;98172.28;2603253;28;20057;-88
2023/06/17 04:38:42;;;;;;;8.63;6.65;;;;;;;13.22;100.00;98176.50;2604447;28;20053;-88
2023/06/17 04:39:58;;;;;;;8.77;6.55;;;;;;;13.34;100.00;98174.22;2605025;28;20041;-88
2023/06/17 04:41:14;;;;;;;8.90;7.03;;;;;;;13.42;100.00;98172.13;2603877;28;20493;-87
2023/06/17 04:42:33;;;;;;;10.00;6.95;;;;;;;13.37;100.00;98163.59;2604288;28;20059;-87
2023/06/17 04:43:49;;;;;;;8.07;6.60;;;;;;;13.40;100.00;98163.47;2606142;28;20045;-89
2023/06/17 04:45:05;;;;;;;9.88;7.07;;;;;;;13.50;100.00;98162.19;2603032;28;20519;-87
2023/06/17 04:46:20;;;;;;;9.50;7.15;;;;;;;13.55;100.00;98167.22;2605032;28;20073;-87
2023/06/17 04:47:36;;;;;;;10.23;7.40;;;;;;;13.56;100.00;98158.41;2602797;28;20097;-87
2023/06/17 04:48:51;;;;;;;9.57;7.80;;;;;;;13.66;100.00;98164.13;2602721;28;20049;-87
2023/06/17 04:50:07;;;;;;;8.98;7.35;;;;;;;13.52;100.00;98164.72;2603423;28;20080;-87
2023/06/17 04:51:24;;;;;;;8.45;6.35;;;;;;;13.72;100.00;98165.63;2605143;28;20685;-87
2023/06/17 04:52:43;;;;;;;10.70;7.57;;;;;;;13.98;100.00;98162.66;2603195;28;20063;-86
2023/06/17 04:54:00;;;;;;;8.27;6.85;;;;;;;14.24;100.00;98170.22;2605548;28;20552;-87
2023/06/17 04:55:18;;;;;;;10.20;7.03;;;;;;;14.20;100.00;98166.03;2603013;28;20100;-86
2023/06/17 04:56:33;;;;;;;8.13;6.60;;;;;;;14.47;100.00;98168.28;2603186;28;20063;-86
2023/06/17 04:57:50;;;;;;;10.77;6.22;;;;;;;14.59;100.00;98164.19;2603793;28;20076;-86
2023/06/17 04:59:05;;;;;;;8.30;5.97;;;;;;;14.73;100.00;98166.16;2604746;28;20072;-86
2023/06/17 05:00:21;;;;;;;8.05;6.05;;;;;;;14.80;100.00;98163.16;2603723;28;20083;-87
2023/06/17 05:01:36;;;;;;;10.60;5.65;;;;;;;14.93;100.00;98167.81;2603106;28;20448;-87
2023/06/17 05:02:52;;;;;;;8.02;6.07;;;;;;;15.10;100.00;98164.31;2603890;28;20040;-87
2023/06/17 05:04:07;;;;;;;9.38;5.78;;;;;;;15.28;100.00;98162.53;2602894;28;20049;-87
2023/06/17 05:05:23;;;;;;;8.02;5.43;;;;;;;15.36;100.00;98162.13;2605121;28;20045;-87
2023/06/17 05:06:39;;;;;;;7.78;5.88;;;;;;;15.49;100.00;98164.97;2603252;28;20045;-87
2023/06/17 05:07:54;;;;;;;6.75;5.00;;;;;;;15.55;100.00;98164.66;2603609;28;20135;-87
2023/06/17 05:09:10;;;;;;;6.70;4.78;;;;;;;15.53;100.00;98164.72;2603101;28;20044;-86
2023/06/17 05:10:25;;;;;;;6.32;5.13;;;;;;;15.54;100.00;98163.78;2603844;28;20044;-87
2023/06/17 05:11:42;;;;;;;5.45;4.60;;;;;;;15.65;100.00;98157.97;2602292;28;20060;-88
2023/06/17 05:12:57;;;;;;;6.32;4.38;;;;;;;15.66;100.00;98154.41;2602804;28;20092;-89
2023/06/17 05:14:13;;;;;;;6.85;4.70;;;;;;;15.74;100.00;98153.97;2603856;28;20060;-88
2023/06/17 05:15:28;;;;;;;5.53;4.53;;;;;;;16.00;100.00;98151.75;2604971;28;20049;-88
2023/06/17 05:16:44;;;;;;;6.38;4.82;;;;;;;16.03;100.00;98158.63;2603220;28;20042;-88
2023/06/17 05:18:01;;;;;;;5.60;4.90;;;;;;;16.04;100.00;98155.03;2603106;28;20053;-89
2023/06/17 05:19:20;;;;;;;5.65;4.63;;;;;;;16.10;100.00;98155.56;2602798;28;20069;-88
2023/06/17 05:20:37;;;;;;;7.00;4.45;;;;;;;16.10;100.00;98152.91;2605168;28;20123;-88
2023/06/17 05:21:53;;;;;;;5.95;4.32;;;;;;;16.31;100.00;98154.44;2604917;28;20052;-89
2023/06/17 05:23:09;;;;;;;6.40;4.25;;;;;;;16.36;100.00;98155.91;2604566;28;20044;-89
2023/06/17 05:24:24;;;;;;;5.63;4.70;;;;;;;16.29;100.00;98154.56;2605500;28;20433;-88
2023/06/17 05:25:40;;;;;;;5.15;3.90;;;;;;;16.14;100.00;98150.97;2604987;28;20052;-89
2023/06/17 05:26:56;;;;;;;5.07;3.95;;;;;;;16.18;100.00;98154.28;2602949;28;20068;-87
2023/06/17 05:28:12;;;;;;;4.78;3.58;;;;;;;16.15;100.00;98157.94;2603587;28;20054;-87
2023/06/17 05:29:30;;;;;;;4.60;3.92;;;;;;;16.32;100.00;98156.16;2601763;28;20447;-90
2023/06/17 05:30:48;;;;;;;6.00;4.00;;;;;;;16.31;100.00;98155.31;2604303;28;20037;-88
2023/06/17 05:32:03;;;;;;;5.20;3.78;;;;;;;16.39;100.00;98160.16;2603136;28;20523;-88
2023/06/17 05:33:19;;;;;;;6.22;3.60;;;;;;;16.44;100.00;98157.28;2604135;28;20052;-88
2023/06/17 05:34:35;;;;;;;4.85;3.90;;;;;;;16.42;100.00;98159.16;2604171;28;20090;-88
2023/06/17 05:35:50;;;;;;;6.00;3.97;;;;;;;16.39;100.00;98160.16;2604506;28;20075;-89
2023/06/17 05:37:06;;;;;;;5.18;4.18;;;;;;;16.49;100.00;98164.00;2602432;28;20096;-88
2023/06/17 05:38:21;;;;;;;4.38;3.97;;;;;;;16.61;100.00;98165.06;2605603;28;20053;-88
2023/06/17 05:39:37;;;;;;;5.60;3.80;;;;;;;16.61;100.00;98173.00;2604172;28;20048;-88
2023/06/17 05:40:52;;;;;;;6.68;4.40;;;;;;;16.61;100.00;98164.22;2605938;28;20048;-88
2023/06/17 05:42:08;;;;;;;4.60;3.65;;;;;;;16.50;100.00;98170.13;2602686;28;20103;-89
2023/06/17 05:43:27;;;;;;;5.25;3.95;;;;;;;16.48;100.00;98167.59;2605743;28;20068;-88
2023/06/17 05:44:43;;;;;;;4.80;3.88;;;;;;;16.58;100.00;98174.97;2603961;28;20049;-89
2023/06/17 05:45:58;;;;;;;5.22;3.90;;;;;;;16.65;100.00;98168.41;2603307;28;20056;-89
2023/06/17 05:47:14;;;;;;;3.83;3.40;;;;;;;16.65;100.00;98176.34;2604791;28;20045;-88
2023/06/17 05:48:29;;;;;;;5.13;3.72;;;;;;;16.64;100.00;98172.81;2603672;28;20041;-88
2023/06/17 05:49:45;;;;;;;6.05;4.18;;;;;;;16.61;100.00;98174.78;2604068;28;20076;-88
2023/06/17 05:51:01;;;;;;;4.78;3.88;;;;;;;16.58;100.00;98173.19;2603692;28;20566;-89
2023/06/17 05:52:16;;;;;;;6.05;4.18;;;;;;;16.70;100.00;98168.97;2602768;28;20052;-88
2023/06/17 05:53:31;;;;;;;4.22;3.55;;;;;;;16.80;100.00;98167.50;2601886;28;20053;-89
2023/06/17 05:54:47;;;;;;;5.55;3.78;;;;;;;16.73;100.00;98170.59;2605197;28;20072;-90
2023/06/17 05:56:07;;;;;;;5.72;3.97;;;;;;;16.75;100.00;98171.38;2601906;28;20046;-88